Lenoir Rhyne, North Carolina
Current Conditions -  °F | °C
As of 5:53 PM on Saturday 25 Oct 2014 (Local Time) from KHKY Reporting Station
Few Clouds Few Clouds  
Wind Chill: 69°   Ceiling: Unl
Heat Index: 69°   Visibility: 10mi
Dew Point: 41°   Wind: 3mph
Humidity: 36%   Direction: 210°SSW
Pressure: 29.95"   Gusts: NA
Location:  35.7628°N, 81.3219°W
Report Text: KHKY 252153Z AUTO 21003KT 10SM FEW080 21/05 A2995 RMK AO2 SLP129 T02060050
Loading
Personal Weather Stations






























Interactive Weather Map
Tropical Storm Tracking
New forecast layout! Learn more

10-Day Weather Forecast

Advertisements
Track Severe Weather on mobile